メインページ
METAR-TAF:

METAR-TAF

空港 :

Las Cruces International Airport

ラスクルーセス, ニューメキシコ州, アメリカ合衆国

緯度: 32-17-22N, 経度: 106-55-19W, 海抜: 1358m

現時点の気象観測

当レポートは26分前の04:15(UTC)に作成
西の風 11kt
気温 10°C
湿度 40%
気圧 1019 hPa
視程: 16.1km
晴天

METAR: KLRU 270415Z AUTO 27011KT 10SM CLR 10/M03 A3009 RMK AO2 T00971027

時間: 21:41 (04:41 UTC)

予報

当レポートは5時間19分前の23:22(UTC)に作成
予報は27日の 00時(UTC)から 27日の 24時(UTC)まで有効
西の風 9kt
視程: 10km
高度25000ftの雲はほとんどない
27日の 1700時(UTC)から
西の風 15kt、最大25ktの突風を伴う
視程: 10km
高度15000ftの雲は散在している
高度25000ftの千切れ雲あり

TAF: KLRU 262322Z 2700/2724 26009KT P6SM FEW250 FM271700 27015G25KT P6SM SCT150 BKN250

4,000以上の空港の気象観測と天気予報(METAR報とTAF報)

利用可能な観測所は地図上に黄色い丸と赤い丸で示す。

丸の上にカーソルを重ねると観測所名を参照できる。

次にクリックすると気象観測と天気予報を参照できる。

マップの切り替え:黒色「×」印の緑ボタンをクリックして拡大、「-」印の緑ボタンをクリックして縮小、緑色の三角印をクリックして隣りの地図に切り替え


METAR-TAF: